Time;durP1;ratioP1;P1;durP2;ratioP2;P2;SDS_P1;SDS_P2;PMS_P1;PMS_P2;Temp;Humidity;BMP_temperature;BMP_pressure;BME280_temperature;BME280_humidity;BME280_pressure;Samples;Min_cycle;Max_cycle;Signal;HPM_P1;HPM_P2
2022/04/13 00:00:16;;;;;;;34.08;14.77;;;;;;;5.57;71.31;97309.34;5002636;28;20053;-72
2022/04/13 00:02:43;;;;;;;45.95;14.43;;;;;;;6.05;72.12;97371.00;5004395;28;20060;-60
2022/04/13 00:05:10;;;;;;;43.83;15.70;;;;;;;6.02;71.82;97370.88;5003834;28;20057;-72
2022/04/13 00:07:37;;;;;;;40.15;16.30;;;;;;;5.44;72.70;97294.69;5004037;28;20053;-72
2022/04/13 00:10:06;;;;;;;71.47;24.42;;;;;;;6.04;72.61;97372.16;5003549;28;20057;-60
2022/04/13 00:12:32;;;;;;;55.95;20.50;;;;;;;6.08;73.26;97369.53;5004165;28;20065;-62
2022/04/13 00:14:59;;;;;;;36.33;14.18;;;;;;;5.67;72.79;97322.72;5003915;28;20062;-59
2022/04/13 00:17:26;;;;;;;33.22;11.32;;;;;;;5.94;71.88;97369.00;5004143;28;20049;-60
2022/04/13 00:19:52;;;;;;;20.95;9.40;;;;;;;6.01;73.03;97441.56;5003986;28;20621;-71
2022/04/13 00:22:19;;;;;;;25.90;9.25;;;;;;;6.06;72.26;97366.31;5004090;28;20065;-71
2022/04/13 00:24:46;;;;;;;19.77;9.10;;;;;;;5.95;72.61;97337.59;5002059;28;20050;-59
2022/04/13 00:27:12;;;;;;;22.52;9.05;;;;;;;6.04;72.22;97363.91;5003741;28;20046;-60
2022/04/13 00:29:39;;;;;;;25.63;10.70;;;;;;;6.18;71.28;97369.13;5003621;28;20425;-71
2022/04/13 00:32:07;;;;;;;26.90;11.38;;;;;;;4.99;71.91;97178.34;5003942;28;20053;-71
2022/04/13 00:34:34;;;;;;;23.10;9.63;;;;;;;6.05;71.49;97342.72;5003766;28;20058;-71
2022/04/13 00:37:01;;;;;;;19.00;9.25;;;;;;;6.25;71.28;97352.91;5004412;28;20058;-72
2022/04/13 00:39:29;;;;;;;22.05;9.35;;;;;;;6.28;70.28;97357.75;5009749;28;20516;-60
2022/04/13 00:41:57;;;;;;;18.92;8.57;;;;;;;6.23;71.05;97352.44;5027025;28;20045;-60
2022/04/13 00:44:27;;;;;;;18.83;9.40;;;;;;;6.14;71.50;97357.22;5027481;28;20475;-72
2022/04/13 00:46:55;;;;;;;20.73;9.23;;;;;;;5.37;72.18;97227.69;5025385;28;20060;-72
2022/04/13 00:49:22;;;;;;;25.55;10.27;;;;;;;5.87;73.08;97335.72;5025949;28;20532;-61
2022/04/13 00:51:50;;;;;;;28.45;11.27;;;;;;;6.12;72.61;97359.47;5026943;28;20127;-71
2022/04/13 00:54:18;;;;;;;26.52;11.18;;;;;;;6.05;73.11;97339.97;5026023;28;20076;-71
2022/04/13 00:56:48;;;;;;;25.27;10.15;;;;;;;5.96;73.61;97341.94;5025793;28;20064;-72
2022/04/13 00:59:16;;;;;;;24.95;9.50;;;;;;;5.96;74.14;97339.19;5027160;28;20049;-72
2022/04/13 01:01:47;;;;;;;25.70;9.65;;;;;;;5.99;74.12;97338.56;5026978;28;20432;-72
2022/04/13 01:04:14;;;;;;;23.48;9.25;;;;;;;6.04;73.83;97341.09;5025367;28;20171;-60
2022/04/13 01:06:42;;;;;;;25.58;11.20;;;;;;;6.00;74.26;97340.97;5026608;28;20065;-70
2022/04/13 01:09:12;;;;;;;31.02;11.80;;;;;;;5.88;74.68;97320.84;5026549;28;20046;-59
2022/04/13 01:11:39;;;;;;;26.15;12.05;;;;;;;5.10;74.18;97196.03;5026932;28;20064;-71
2022/04/13 01:14:06;;;;;;;29.40;12.32;;;;;;;5.91;73.16;97336.66;5027111;28;20140;-71
2022/04/13 01:16:35;;;;;;;37.63;11.85;;;;;;;5.49;73.40;97279.97;5026469;28;20079;-60
2022/04/13 01:19:04;;;;;;;27.08;11.27;;;;;;;5.81;72.87;97342.50;5026576;28;20059;-59
2022/04/13 01:21:41;;;;;;;31.73;12.52;;;;;;;5.31;73.51;97289.44;5026362;28;20057;-70
2022/04/13 01:24:09;;;;;;;28.85;11.10;;;;;;;5.20;73.99;97271.72;5025012;28;20060;-61
2022/04/13 01:26:37;;;;;;;29.08;10.95;;;;;;;5.51;74.48;97327.16;5026198;28;20500;-71
2022/04/13 01:29:04;;;;;;;30.15;11.35;;;;;;;5.50;75.89;97331.03;5024628;28;20574;-65
2022/04/13 01:31:34;;;;;;;24.65;11.43;;;;;;;5.39;75.74;97324.31;5025915;28;20156;-72
2022/04/13 01:34:01;;;;;;;24.30;9.98;;;;;;;5.48;76.78;97322.31;5026033;28;20083;-60
2022/04/13 01:36:28;;;;;;;26.00;10.35;;;;;;;5.53;76.15;97327.63;5024648;28;20053;-72
2022/04/13 01:38:55;;;;;;;27.35;10.20;;;;;;;5.54;75.10;97326.50;5025010;28;20056;-61
2022/04/13 01:41:22;;;;;;;27.08;9.63;;;;;;;4.55;75.93;97168.66;5021199;28;20053;-72
2022/04/13 01:43:49;;;;;;;26.40;11.00;;;;;;;5.33;76.39;97289.91;5006505;28;20057;-72
2022/04/13 01:46:15;;;;;;;24.08;8.52;;;;;;;5.60;75.67;97331.47;5004394;28;20072;-71
2022/04/13 01:48:43;;;;;;;18.30;7.65;;;;;;;5.25;75.53;97275.09;5006186;28;20445;-70
2022/04/13 01:51:09;;;;;;;17.13;6.30;;;;;;;4.41;74.98;97123.41;5005851;28;20065;-59
2022/04/13 01:53:36;;;;;;;16.75;6.47;;;;;;;5.13;76.48;97293.41;5006370;28;20061;-59
2022/04/13 01:56:03;;;;;;;13.40;5.80;;;;;;;5.49;76.27;97329.41;5006173;28;20056;-71
2022/04/13 01:58:31;;;;;;;13.70;5.15;;;;;;;5.50;76.18;97325.56;5005141;28;20050;-59
2022/04/13 02:00:58;;;;;;;17.70;7.15;;;;;;;5.40;76.24;97310.25;5004591;28;20060;-71
2022/04/13 02:03:25;;;;;;;18.00;6.57;;;;;;;5.34;76.47;97305.25;5005879;28;20263;-72
2022/04/13 02:05:53;;;;;;;18.17;6.95;;;;;;;5.17;75.36;97255.91;5006065;28;20061;-71
2022/04/13 02:08:20;;;;;;;15.73;6.00;;;;;;;5.16;76.34;97254.28;5006025;28;20065;-61
2022/04/13 02:10:47;;;;;;;23.17;7.15;;;;;;;5.67;75.93;97331.78;5006119;28;20053;-59
2022/04/13 02:13:14;;;;;;;17.40;7.20;;;;;;;5.43;76.08;97286.78;5005910;28;20120;-69
2022/04/13 02:15:41;;;;;;;23.25;7.90;;;;;;;5.39;77.04;97299.59;5004389;28;20050;-59
2022/04/13 02:18:08;;;;;;;22.63;9.20;;;;;;;5.60;77.34;97325.16;5005627;28;20559;-70
2022/04/13 02:20:35;;;;;;;19.40;7.68;;;;;;;5.53;77.59;97322.13;5004165;28;20057;-71
2022/04/13 02:23:01;;;;;;;23.38;7.60;;;;;;;5.48;77.12;97316.81;5003981;28;20491;-60
2022/04/13 02:25:29;;;;;;;24.88;8.15;;;;;;;5.39;76.74;97296.84;5005534;28;20062;-59
2022/04/13 02:27:56;;;;;;;28.23;9.13;;;;;;;5.47;76.75;97320.72;5005335;28;20476;-60
2022/04/13 02:30:22;;;;;;;29.23;10.98;;;;;;;5.45;76.57;97333.97;5005527;28;20057;-58
2022/04/13 02:32:49;;;;;;;18.00;7.60;;;;;;;5.40;76.41;97309.44;5006007;28;20109;-70
2022/04/13 02:35:16;;;;;;;13.05;6.43;;;;;;;5.25;75.78;97313.53;5003619;28;20136;-61
2022/04/13 02:37:43;;;;;;;13.93;5.18;;;;;;;5.14;76.47;97344.44;5005273;28;20050;-59
2022/04/13 02:40:12;;;;;;;14.02;5.30;;;;;;;5.10;77.18;97337.97;5005090;28;20054;-71
2022/04/13 02:42:39;;;;;;;14.27;5.60;;;;;;;4.93;77.08;97310.59;5005295;28;20081;-71
2022/04/13 02:45:07;;;;;;;16.98;6.07;;;;;;;4.45;78.66;97245.03;5005250;28;20197;-60
2022/04/13 02:47:36;;;;;;;15.50;6.25;;;;;;;4.65;78.93;97300.00;5005350;28;20080;-71
2022/04/13 02:50:06;;;;;;;24.40;7.05;;;;;;;4.66;78.60;97295.31;5005220;28;20472;-71
2022/04/13 02:52:33;;;;;;;19.23;6.90;;;;;;;4.69;79.19;97311.91;5005375;28;20054;-71
2022/04/13 02:55:00;;;;;;;19.88;7.18;;;;;;;4.66;79.69;97320.81;5004956;28;20627;-72
2022/04/13 02:57:27;;;;;;;18.70;5.80;;;;;;;4.35;79.94;97245.34;5005376;28;20056;-72
2022/04/13 02:59:53;;;;;;;17.27;6.03;;;;;;;4.74;79.81;97312.91;5004104;28;20053;-70
2022/04/13 03:02:20;;;;;;;14.05;5.32;;;;;;;4.77;78.98;97312.25;5004910;28;20422;-60
2022/04/13 03:04:47;;;;;;;10.38;4.55;;;;;;;4.80;79.10;97314.31;5004988;28;20061;-61
2022/04/13 03:07:16;;;;;;;14.27;4.75;;;;;;;4.90;78.11;97311.25;5005249;28;20054;-59
2022/04/13 03:09:43;;;;;;;11.30;5.15;;;;;;;4.91;77.03;97318.34;5004860;28;20050;-59
2022/04/13 03:12:11;;;;;;;21.52;6.32;;;;;;;4.85;77.49;97325.13;5005167;28;20062;-71
2022/04/13 03:14:39;;;;;;;16.63;5.43;;;;;;;4.69;78.14;97325.63;5004758;28;20052;-70
2022/04/13 03:17:06;;;;;;;9.95;4.93;;;;;;;4.77;78.33;97320.47;5004691;28;20494;-59
2022/04/13 03:19:32;;;;;;;7.95;3.95;;;;;;;4.21;78.18;97245.56;5003051;28;20584;-71
2022/04/13 03:21:59;;;;;;;10.70;5.20;;;;;;;4.65;78.17;97321.94;5004309;28;20056;-72
2022/04/13 03:24:26;;;;;;;10.85;4.47;;;;;;;4.50;78.39;97308.72;5004941;28;20366;-71
2022/04/13 03:26:53;;;;;;;13.13;5.63;;;;;;;4.68;78.50;97332.28;5005269;28;20451;-59
2022/04/13 03:29:20;;;;;;;13.38;5.63;;;;;;;4.75;78.42;97330.97;5003572;28;20056;-71
2022/04/13 03:31:47;;;;;;;24.70;9.10;;;;;;;4.11;78.38;97240.38;5003208;28;20490;-58
2022/04/13 03:34:13;;;;;;;12.45;5.40;;;;;;;4.68;77.81;97333.41;5002878;28;20050;-71
2022/04/13 03:36:40;;;;;;;13.52;5.80;;;;;;;4.12;78.71;97269.44;5002600;28;20062;-69
2022/04/13 03:39:07;;;;;;;14.07;5.53;;;;;;;4.23;78.89;97314.56;5004354;28;20050;-72
2022/04/13 03:41:35;;;;;;;14.77;5.43;;;;;;;4.26;79.89;97332.31;5022084;28;20049;-59
2022/04/13 03:44:05;;;;;;;9.30;4.18;;;;;;;4.28;79.84;97319.88;5024252;28;20508;-58
2022/04/13 03:46:32;;;;;;;14.15;4.28;;;;;;;3.96;80.11;97303.94;5023357;28;20057;-72
2022/04/13 03:48:59;;;;;;;12.15;4.97;;;;;;;4.25;79.70;97331.47;5023636;28;20050;-62
2022/04/13 03:51:26;;;;;;;9.80;4.25;;;;;;;3.53;79.70;97234.59;5024224;28;20052;-72
2022/04/13 03:53:52;;;;;;;12.40;5.30;;;;;;;4.20;80.13;97337.16;5023684;28;20057;-72
2022/04/13 03:56:19;;;;;;;15.50;6.40;;;;;;;4.06;80.82;97339.22;5023334;28;20057;-69
2022/04/13 03:58:46;;;;;;;17.95;5.68;;;;;;;4.12;80.15;97334.41;5022342;28;20072;-59
2022/04/13 04:01:12;;;;;;;13.35;6.32;;;;;;;4.16;79.81;97335.34;5023515;28;20061;-71
2022/04/13 04:03:39;;;;;;;16.80;6.68;;;;;;;3.97;79.83;97315.66;5023891;28;20049;-72
2022/04/13 04:06:06;;;;;;;20.20;7.15;;;;;;;4.10;80.29;97340.22;5022041;28;20045;-71
2022/04/13 04:08:32;;;;;;;15.70;7.07;;;;;;;3.56;79.57;97304.31;5023618;28;20061;-59
2022/04/13 04:10:59;;;;;;;24.23;9.02;;;;;;;4.31;78.84;97343.94;5023335;28;20049;-70
2022/04/13 04:13:26;;;;;;;24.10;9.57;;;;;;;4.20;78.01;97345.38;5023774;28;20057;-60
2022/04/13 04:15:53;;;;;;;29.98;11.35;;;;;;;4.19;78.03;97351.97;5022318;28;20128;-70
2022/04/13 04:18:20;;;;;;;23.15;9.95;;;;;;;4.18;79.02;97355.84;5023074;28;20614;-74
2022/04/13 04:20:46;;;;;;;24.58;7.25;;;;;;;4.19;79.55;97353.91;5023382;28;20049;-59
2022/04/13 04:23:13;;;;;;;20.10;8.43;;;;;;;4.21;79.27;97354.38;5023068;28;20057;-71
2022/04/13 04:25:40;;;;;;;19.73;7.85;;;;;;;4.08;80.11;97345.19;5021522;28;20464;-72
2022/04/13 04:28:10;;;;;;;15.77;6.55;;;;;;;4.30;79.18;97364.22;5022141;28;20436;-72
2022/04/13 04:30:41;;;;;;;14.70;6.60;;;;;;;4.28;79.42;97366.47;5023194;28;20057;-58
2022/04/13 04:33:12;;;;;;;12.48;5.95;;;;;;;4.47;77.60;97369.72;5022122;28;20104;-59
2022/04/13 04:35:40;;;;;;;23.63;6.53;;;;;;;4.21;77.15;97327.78;5023515;28;20098;-59
2022/04/13 04:38:06;;;;;;;16.77;6.07;;;;;;;4.63;75.98;97379.06;5023227;28;20064;-58
2022/04/13 04:40:33;;;;;;;19.25;5.60;;;;;;;4.39;75.86;97318.41;5013580;28;20058;-71
2022/04/13 04:43:00;;;;;;;14.93;5.80;;;;;;;4.77;76.59;97386.31;5004220;28;20061;-72
2022/04/13 04:45:28;;;;;;;12.55;6.47;;;;;;;4.89;75.77;97391.94;5002918;28;20156;-59
2022/04/13 04:47:56;;;;;;;21.33;8.57;;;;;;;4.48;74.81;97264.38;5003523;28;20088;-59
2022/04/13 04:50:23;;;;;;;15.95;7.93;;;;;;;5.44;74.29;97381.78;5003120;28;20045;-59
2022/04/13 04:52:50;;;;;;;11.48;5.82;;;;;;;5.64;73.30;97376.38;5003715;28;20418;-59
2022/04/13 04:55:18;;;;;;;13.27;5.20;;;;;;;5.73;72.71;97376.34;5003707;28;20054;-59
2022/04/13 04:57:46;;;;;;;10.60;5.57;;;;;;;5.85;72.73;97382.78;5001833;28;20061;-71
2022/04/13 05:00:17;;;;;;;11.63;5.00;;;;;;;5.99;71.83;97382.56;5002902;28;20271;-71
2022/04/13 05:02:48;;;;;;;15.55;5.80;;;;;;;6.03;70.53;97323.00;5001787;28;20128;-72
2022/04/13 05:05:16;;;;;;;14.73;7.05;;;;;;;6.16;69.64;97354.94;5002805;28;20156;-59
2022/04/13 05:07:43;;;;;;;21.23;9.52;;;;;;;6.37;69.85;97383.25;5001371;28;20422;-62
2022/04/13 05:10:10;;;;;;;29.83;12.18;;;;;;;6.43;69.94;97373.66;5001980;28;20061;-71
2022/04/13 05:12:58;;;;;;;33.45;13.52;;;;;;;6.56;69.25;97391.84;4991880;28;20054;-70
2022/04/13 05:15:26;;;;;;;20.50;10.70;;;;;;;6.17;68.83;97389.53;5014863;28;20089;-70
2022/04/13 05:17:52;;;;;;;23.60;11.20;;;;;;;6.38;69.57;97406.88;5001649;28;20058;-59
2022/04/13 05:20:19;;;;;;;29.90;12.63;;;;;;;6.65;69.25;97416.56;5003228;28;20133;-61
2022/04/13 05:22:46;;;;;;;23.10;11.18;;;;;;;6.89;68.16;97400.16;5003252;28;20072;-71
2022/04/13 05:25:15;;;;;;;23.02;11.25;;;;;;;6.92;66.19;97405.81;5005054;28;20058;-71
2022/04/13 05:27:43;;;;;;;31.27;14.38;;;;;;;7.28;65.64;97392.16;5005068;28;20058;-60
2022/04/13 05:30:11;;;;;;;34.55;13.65;;;;;;;7.18;64.46;97342.97;5006542;28;20045;-72
2022/04/13 05:32:49;;;;;;;34.88;14.32;;;;;;;7.63;63.13;97396.09;5006980;28;20050;-71
2022/04/13 05:35:18;;;;;;;22.23;11.15;;;;;;;7.87;62.18;97397.28;5006358;28;20053;-71
2022/04/13 05:37:45;;;;;;;18.90;9.90;;;;;;;7.63;61.87;97338.22;5006534;28;20081;-62
2022/04/13 05:40:12;;;;;;;20.92;10.07;;;;;;;7.98;60.53;97351.56;5010482;28;20061;-60
2022/04/13 05:42:39;;;;;;;25.25;12.70;;;;;;;8.46;60.85;97390.13;5023246;28;20049;-73
2022/04/13 05:45:07;;;;;;;29.73;11.95;;;;;;;8.14;60.83;97319.34;5014942;28;20108;-64
2022/04/13 05:47:34;;;;;;;25.95;11.82;;;;;;;8.62;61.31;97352.38;5008523;28;20060;-66
2022/04/13 05:50:02;;;;;;;20.92;10.48;;;;;;;8.37;58.32;97329.56;5011147;28;20523;-68
2022/04/13 05:52:30;;;;;;;14.15;9.20;;;;;;;9.01;58.50;97388.25;5022827;28;20053;-67
2022/04/13 05:54:57;;;;;;;20.73;10.45;;;;;;;9.10;58.09;97396.41;5025355;28;20049;-60
2022/04/13 05:57:24;;;;;;;16.75;9.75;;;;;;;9.14;58.93;97391.75;5023444;28;20061;-61
2022/04/13 05:59:50;;;;;;;12.02;7.57;;;;;;;8.68;59.32;97367.53;5019508;28;20429;-61
2022/04/13 06:02:17;;;;;;;15.45;8.05;;;;;;;8.83;59.53;97380.59;5015848;28;20045;-58
2022/04/13 06:04:44;;;;;;;14.45;8.05;;;;;;;8.92;59.39;97378.50;5014226;28;20125;-64
2022/04/13 06:07:11;;;;;;;17.85;8.43;;;;;;;9.29;58.20;97388.25;5005745;28;20415;-58
2022/04/13 06:09:38;;;;;;;18.80;7.78;;;;;;;9.17;58.63;97374.47;5005435;28;20064;-64
2022/04/13 06:12:05;;;;;;;17.10;8.52;;;;;;;9.59;57.97;97392.22;5004332;28;20045;-58
2022/04/13 06:14:31;;;;;;;13.70;8.68;;;;;;;9.54;58.10;97389.72;5009028;28;20049;-66
2022/04/13 06:17:03;;;;;;;14.68;8.57;;;;;;;9.54;58.17;97362.06;5010820;28;20062;-68
2022/04/13 06:19:29;;;;;;;12.70;7.32;;;;;;;9.56;58.41;97386.59;5013504;28;20053;-68
2022/04/13 06:21:56;;;;;;;12.15;5.72;;;;;;;9.14;58.12;97293.09;5018367;28;20045;-57
2022/04/13 06:24:23;;;;;;;6.68;3.95;;;;;;;9.84;56.54;97352.16;5015327;28;20062;-63
2022/04/13 06:26:49;;;;;;;13.65;5.40;;;;;;;10.00;56.79;97383.38;5014023;28;20412;-61
2022/04/13 06:29:16;;;;;;;14.63;5.20;;;;;;;10.09;57.04;97355.53;5008556;28;20053;-59
2022/04/13 06:31:42;;;;;;;11.15;4.20;;;;;;;10.04;56.28;97364.09;5019404;28;20049;-59
2022/04/13 06:34:09;;;;;;;10.73;5.03;;;;;;;9.78;54.11;97253.19;5022399;28;20168;-60
2022/04/13 06:36:36;;;;;;;15.32;5.80;;;;;;;10.47;53.60;97320.44;5023529;28;20071;-59
2022/04/13 06:39:02;;;;;;;15.63;5.88;;;;;;;10.61;52.92;97361.47;5017588;28;20057;-60
2022/04/13 06:41:29;;;;;;;9.10;5.88;;;;;;;10.97;52.13;97382.44;5019239;28;20164;-66
2022/04/13 06:43:56;;;;;;;8.85;4.93;;;;;;;10.56;49.25;97282.25;5020728;28;20049;-61
2022/04/13 06:46:22;;;;;;;7.78;4.82;;;;;;;10.91;49.33;97322.94;5007612;28;20499;-71
2022/04/13 06:48:49;;;;;;;8.82;4.45;;;;;;;11.62;48.95;97378.56;5013598;28;20107;-69
2022/04/13 06:51:16;;;;;;;7.15;4.05;;;;;;;11.87;46.54;97368.75;5003935;28;20061;-59
2022/04/13 06:53:43;;;;;;;7.75;4.25;;;;;;;11.68;46.25;97308.56;5004513;28;20050;-68
2022/04/13 06:56:12;;;;;;;8.10;4.72;;;;;;;11.90;47.51;97323.59;5007706;28;20057;-62
2022/04/13 06:58:42;;;;;;;6.70;4.55;;;;;;;11.48;46.65;97209.91;5004407;28;20060;-59
2022/04/13 07:01:09;;;;;;;13.45;5.72;;;;;;;12.69;45.79;97371.63;5020471;28;20053;-71
2022/04/13 07:03:36;;;;;;;8.90;5.75;;;;;;;12.92;45.42;97380.66;5005938;28;20504;-59
2022/04/13 07:06:03;;;;;;;12.48;5.78;;;;;;;12.96;45.15;97382.31;5007102;28;20094;-58
2022/04/13 07:08:52;;;;;;;11.10;4.55;;;;;;;12.96;43.74;97382.31;5002829;28;20056;-66
2022/04/13 07:11:19;;;;;;;7.00;4.38;;;;;;;12.31;44.07;97436.53;5006110;28;20046;-66
2022/04/13 07:13:46;;;;;;;6.13;4.13;;;;;;;11.54;44.44;97299.19;5008112;28;20056;-63
2022/04/13 07:16:12;;;;;;;7.60;4.38;;;;;;;11.94;44.13;97314.16;5024338;28;20369;-56
2022/04/13 07:18:39;;;;;;;5.95;3.72;;;;;;;11.73;44.58;97385.13;5024029;28;20132;-59
2022/04/13 07:21:06;;;;;;;8.50;4.50;;;;;;;11.74;44.39;97337.63;5021891;28;20454;-65
2022/04/13 07:23:32;;;;;;;6.00;3.83;;;;;;;11.64;44.69;97393.72;5023401;28;20131;-66
2022/04/13 07:25:59;;;;;;;9.10;4.03;;;;;;;11.63;45.51;97391.31;5022099;28;20057;-57
2022/04/13 07:28:26;;;;;;;7.45;4.07;;;;;;;11.83;43.94;97379.78;5023945;28;20053;-67
2022/04/13 07:30:57;;;;;;;8.15;4.07;;;;;;;12.09;43.74;97376.28;5023609;28;20508;-56
2022/04/13 07:33:24;;;;;;;5.80;3.85;;;;;;;12.08;43.07;97310.78;5022690;28;20072;-57
2022/04/13 07:35:51;;;;;;;7.78;4.10;;;;;;;12.78;41.28;97392.41;5023304;28;20072;-65
2022/04/13 07:38:18;;;;;;;9.45;4.25;;;;;;;11.97;42.15;97295.94;5021892;28;20057;-65
2022/04/13 07:40:45;;;;;;;5.40;3.80;;;;;;;12.66;42.12;97389.84;5009689;28;20080;-56
2022/04/13 07:43:16;;;;;;;6.88;4.45;;;;;;;12.77;40.89;97385.22;5023820;28;20049;-66
2022/04/13 07:45:43;;;;;;;7.88;3.88;;;;;;;11.51;41.38;97161.19;5021778;28;20570;-59
2022/04/13 07:48:10;;;;;;;9.95;5.68;;;;;;;12.93;41.21;97383.06;5022959;28;20880;-55
2022/04/13 07:50:37;;;;;;;9.20;4.43;;;;;;;12.81;41.58;97386.09;5022956;28;20057;-58
2022/04/13 07:53:03;;;;;;;11.85;5.45;;;;;;;12.96;41.21;97353.72;5023237;28;20056;-66
2022/04/13 07:55:30;;;;;;;8.77;4.68;;;;;;;12.85;39.84;97347.22;5017107;28;20057;-60
2022/04/13 07:57:57;;;;;;;6.80;4.25;;;;;;;12.81;40.08;97369.41;5017176;28;20528;-60
2022/04/13 08:00:24;;;;;;;8.13;4.20;;;;;;;13.05;39.73;97368.97;5010017;28;20046;-60
2022/04/13 08:02:50;;;;;;;4.22;3.42;;;;;;;13.20;39.79;97370.72;5013184;28;20484;-71
2022/04/13 08:05:17;;;;;;;5.47;3.45;;;;;;;12.36;37.59;97227.06;5021059;28;20129;-64
2022/04/13 08:07:44;;;;;;;5.47;3.17;;;;;;;13.25;37.70;97367.63;5023372;28;20057;-58
2022/04/13 08:10:12;;;;;;;4.88;3.20;;;;;;;13.47;37.55;97330.50;5022832;28;20056;-61
2022/04/13 08:12:42;;;;;;;5.22;2.97;;;;;;;14.06;35.53;97362.06;5011810;28;20050;-63
2022/04/13 08:15:10;;;;;;;8.50;3.97;;;;;;;14.24;35.25;97360.22;5003032;28;20428;-57
2022/04/13 08:17:39;;;;;;;3.95;3.58;;;;;;;14.54;34.40;97355.31;5003449;28;20054;-65
2022/04/13 08:20:08;;;;;;;3.40;3.10;;;;;;;14.78;33.74;97360.22;5002835;28;20085;-65
2022/04/13 08:22:35;;;;;;;5.63;3.05;;;;;;;14.96;33.41;97349.97;5006859;28;20085;-63
2022/04/13 08:25:02;;;;;;;5.88;2.90;;;;;;;14.55;33.59;97223.06;5010598;28;20049;-70
2022/04/13 08:27:29;;;;;;;3.67;3.17;;;;;;;15.22;32.40;97346.91;5008814;28;20054;-67
2022/04/13 08:29:55;;;;;;;4.07;2.97;;;;;;;14.68;33.82;97252.22;5015960;28;20053;-60
2022/04/13 08:32:22;;;;;;;2.85;2.65;;;;;;;15.40;32.32;97353.34;5002139;28;20106;-66
2022/04/13 08:34:52;;;;;;;3.28;3.00;;;;;;;15.54;32.38;97347.03;5012680;28;20050;-69
2022/04/13 08:37:20;;;;;;;3.15;2.60;;;;;;;15.67;30.26;97346.25;5016284;28;20046;-64
2022/04/13 08:39:47;;;;;;;3.88;3.15;;;;;;;15.11;31.66;97390.69;5013238;28;20046;-62
2022/04/13 08:42:46;;;;;;;4.40;2.92;;;;;;;15.27;31.22;97346.50;5011249;28;20065;-59
2022/04/13 08:45:25;;;;;;;3.20;2.92;;;;;;;15.48;31.79;97338.22;5014026;28;20432;-60
2022/04/13 08:47:56;;;;;;;3.47;2.78;;;;;;;15.66;29.80;97333.47;5020599;28;20049;-59
2022/04/13 08:50:29;;;;;;;5.15;3.40;;;;;;;15.61;30.71;97331.06;5017591;28;20454;-58
2022/04/13 08:53:02;;;;;;;3.63;2.85;;;;;;;15.43;31.43;97301.53;5002665;28;20064;-59
2022/04/13 08:55:30;;;;;;;3.22;2.90;;;;;;;14.80;30.88;97170.97;5001850;28;20132;-63
2022/04/13 08:58:27;;;;;;;2.90;2.70;;;;;;;16.09;30.73;97317.56;5014157;28;20049;-60
2022/04/13 09:00:57;;;;;;;10.05;4.38;;;;;;;15.29;31.71;97184.22;5024755;28;20056;-67
2022/04/13 09:03:33;;;;;;;4.60;3.97;;;;;;;16.15;30.97;97319.56;5022319;28;20063;-59
2022/04/13 09:06:00;;;;;;;4.82;3.03;;;;;;;16.11;31.39;97298.38;5005546;28;20500;-59
2022/04/13 09:08:46;;;;;;;3.03;2.83;;;;;;;16.32;31.10;97315.94;5006735;28;20050;-65
2022/04/13 09:11:13;;;;;;;4.30;3.00;;;;;;;16.21;31.32;97309.56;5006140;28;20065;-59
2022/04/13 09:13:40;;;;;;;4.35;2.90;;;;;;;16.34;30.88;97295.97;5005756;28;20065;-62
2022/04/13 09:16:07;;;;;;;4.13;2.70;;;;;;;16.42;31.11;97298.34;5004761;28;20501;-58
2022/04/13 09:18:34;;;;;;;3.88;2.97;;;;;;;15.82;32.00;97191.41;5005898;28;20057;-62
2022/04/13 09:21:02;;;;;;;8.45;5.25;;;;;;;16.27;31.01;97256.81;5005509;28;20500;-64
2022/04/13 09:23:29;;;;;;;4.07;3.13;;;;;;;15.66;30.26;97294.38;5005569;28;20056;-59
2022/04/13 09:25:58;;;;;;;9.50;5.13;;;;;;;14.70;32.56;97102.06;5006055;28;20050;-57
2022/04/13 09:28:26;;;;;;;3.75;3.42;;;;;;;15.90;31.63;97248.88;5006420;28;20146;-57
2022/04/13 09:30:54;;;;;;;7.25;3.75;;;;;;;16.03;31.04;97278.03;5004357;28;20057;-59
2022/04/13 09:33:21;;;;;;;3.55;2.95;;;;;;;15.41;31.72;97186.66;5004851;28;20080;-58
2022/04/13 09:35:48;;;;;;;3.92;3.53;;;;;;;16.11;31.40;97259.25;5006191;28;20049;-58
2022/04/13 09:38:16;;;;;;;3.67;2.97;;;;;;;16.33;31.71;97272.78;5011646;28;20593;-57
2022/04/13 09:40:43;;;;;;;5.85;4.15;;;;;;;16.40;32.43;97252.41;5004218;28;20056;-62
2022/04/13 09:43:16;;;;;;;4.30;3.20;;;;;;;16.56;31.34;97270.38;5006180;28;20425;-62
2022/04/13 09:45:45;;;;;;;4.53;3.40;;;;;;;16.57;31.55;97271.97;5005424;28;20058;-62
2022/04/13 09:48:16;;;;;;;3.85;3.28;;;;;;;16.52;30.92;97258.41;5006230;28;20053;-62
2022/04/13 09:50:44;;;;;;;5.10;2.97;;;;;;;15.42;32.08;97105.31;5005473;28;20050;-62
2022/04/13 09:53:13;;;;;;;3.78;3.40;;;;;;;15.49;31.52;97200.22;5004616;28;20057;-63
2022/04/13 09:55:41;;;;;;;4.68;3.00;;;;;;;15.56;31.99;97278.41;5004871;28;20060;-58
2022/04/13 09:58:13;;;;;;;3.90;2.80;;;;;;;15.52;32.09;97246.91;5004375;28;20065;-59
2022/04/13 10:00:42;;;;;;;4.22;3.08;;;;;;;15.93;32.86;97217.34;5005486;28;20053;-59
2022/04/13 10:03:15;;;;;;;3.45;3.00;;;;;;;16.44;31.88;97256.81;5004491;28;20073;-59
2022/04/13 10:05:46;;;;;;;4.47;3.10;;;;;;;16.52;30.82;97250.00;5005134;28;20058;-61
2022/04/13 10:08:15;;;;;;;3.33;2.75;;;;;;;16.41;30.49;97232.44;5005484;28;20069;-58
2022/04/13 10:10:46;;;;;;;3.00;2.80;;;;;;;16.38;30.92;97252.00;5004724;28;20435;-64
2022/04/13 10:13:30;;;;;;;4.13;3.72;;;;;;;16.52;31.42;97236.03;5005256;28;20058;-60
2022/04/13 10:15:59;;;;;;;3.40;3.10;;;;;;;16.06;31.72;97246.47;5004262;28;20149;-59
2022/04/13 10:18:27;;;;;;;3.13;2.92;;;;;;;14.83;32.19;97128.34;5005835;28;20089;-59
2022/04/13 10:20:54;;;;;;;4.70;3.05;;;;;;;16.00;32.72;97248.09;5003881;28;20046;-59
2022/04/13 10:23:21;;;;;;;4.03;3.40;;;;;;;15.93;31.84;97242.50;5005306;28;20482;-63
2022/04/13 10:25:47;;;;;;;4.80;3.17;;;;;;;15.91;32.50;97247.69;5004813;28;20058;-63
2022/04/13 10:28:21;;;;;;;5.28;3.33;;;;;;;16.52;32.56;97241.63;5005301;28;20057;-59
2022/04/13 10:30:48;;;;;;;2.97;2.78;;;;;;;16.72;31.14;97190.81;5005069;28;20053;-59
2022/04/13 10:33:14;;;;;;;3.17;2.88;;;;;;;17.36;31.23;97231.22;5006056;28;20152;-59
2022/04/13 10:35:44;;;;;;;4.93;2.92;;;;;;;17.61;30.76;97223.47;5004495;28;20520;-63
2022/04/13 10:38:14;;;;;;;3.17;2.85;;;;;;;17.55;29.53;97225.13;5005187;28;20053;-62
2022/04/13 10:40:42;;;;;;;4.35;3.17;;;;;;;16.09;30.75;97189.00;5004515;28;20049;-58
2022/04/13 10:43:11;;;;;;;3.83;3.22;;;;;;;16.05;31.37;97216.94;5004975;28;20442;-63
2022/04/13 10:45:39;;;;;;;3.05;2.60;;;;;;;16.72;31.48;97227.16;5004151;28;20516;-62
2022/04/13 10:48:10;;;;;;;3.40;3.05;;;;;;;16.63;31.79;97234.00;5003491;28;20406;-58
2022/04/13 10:50:45;;;;;;;3.75;3.40;;;;;;;17.41;32.27;97219.59;5011102;28;20512;-59
2022/04/13 10:53:15;;;;;;;3.95;3.25;;;;;;;17.85;30.85;97228.06;5008656;28;20861;-62
2022/04/13 10:55:44;;;;;;;3.60;3.30;;;;;;;17.73;30.19;97220.19;5010907;28;20053;-59
2022/04/13 10:58:23;;;;;;;4.50;3.35;;;;;;;17.78;30.32;97222.53;5007370;28;20050;-70
2022/04/13 11:00:57;;;;;;;3.67;3.00;;;;;;;17.50;30.42;97217.13;5009719;28;20046;-63
2022/04/13 11:03:25;;;;;;;4.40;3.25;;;;;;;17.04;31.79;97185.84;5015186;28;20045;-65
2022/04/13 11:05:53;;;;;;;3.40;3.10;;;;;;;17.28;30.78;97215.66;5003620;28;20815;-64
2022/04/13 11:08:44;;;;;;;3.17;2.83;;;;;;;17.39;30.86;97216.38;5008389;28;20069;-65
2022/04/13 11:11:17;;;;;;;4.50;2.92;;;;;;;17.34;30.37;97220.44;5012863;28;20061;-63
2022/04/13 11:13:49;;;;;;;4.90;3.35;;;;;;;17.39;30.31;97200.38;5008446;28;20459;-68
2022/04/13 11:16:19;;;;;;;4.15;3.20;;;;;;;17.50;30.13;97205.94;5004118;28;20057;-63
2022/04/13 11:19:01;;;;;;;4.18;3.30;;;;;;;18.08;30.71;97203.06;5012814;28;20053;-70
2022/04/13 11:21:30;;;;;;;2.88;2.67;;;;;;;18.01;29.50;97169.47;5005396;28;20057;-66
2022/04/13 11:23:58;;;;;;;3.50;3.20;;;;;;;18.29;29.50;97232.88;5007916;28;20046;-61
2022/04/13 11:26:34;;;;;;;3.95;3.55;;;;;;;18.57;30.11;97194.13;5004478;28;20050;-66
2022/04/13 11:29:10;;;;;;;3.10;2.90;;;;;;;18.36;29.16;97205.56;5003745;28;20054;-68
2022/04/13 11:32:01;;;;;;;3.50;3.20;;;;;;;17.14;30.14;97201.75;5005702;28;20112;-60
2022/04/13 11:34:30;;;;;;;3.58;2.90;;;;;;;15.09;31.07;97075.78;5006053;28;20053;-59
2022/04/13 11:37:01;;;;;;;4.38;3.55;;;;;;;16.68;31.43;97159.25;5012948;28;20060;-67